Time;durP1;ratioP1;P1;durP2;ratioP2;P2;SDS_P1;SDS_P2;PMS_P1;PMS_P2;Temp;Humidity;BMP_temperature;BMP_pressure;BME280_temperature;BME280_humidity;BME280_pressure;Samples;Min_cycle;Max_cycle;Signal;HPM_P1;HPM_P2
2023/12/05 00:00:28;;;;;;;0.10;0.10;;;;;;;;;;4885131;29;20031;-78
2023/12/05 00:03:00;;;;;;;0.20;0.20;;;2.90;99.90;;;;;;4887534;29;20024;-78
2023/12/05 00:05:26;;;;;;;5.32;4.95;;;4.40;99.90;;;;;;4881287;29;20029;-79
2023/12/05 00:07:51;;;;;;;0.10;0.10;;;2.80;99.90;;;;;;4886525;29;20072;-78
2023/12/05 00:10:24;;;;;;;0.15;0.15;;;2.80;99.90;;;;;;4958142;29;20040;-78
2023/12/05 00:12:53;;;;;;;0.15;0.15;;;2.90;99.90;;;;;;4963735;29;20690;-78
2023/12/05 00:15:20;;;;;;;0.20;0.20;;;2.90;99.90;;;;;;4961614;29;20038;-78
2023/12/05 00:17:46;;;;;;;18.23;16.88;;;2.80;99.90;;;;;;4967141;29;20047;-78
2023/12/05 00:20:17;;;;;;;0.20;0.20;;;2.90;99.90;;;;;;4969015;28;20067;-79
2023/12/05 00:22:43;;;;;;;10.90;10.48;;;;;;;;;;4968227;28;20042;-78
2023/12/05 00:25:14;;;;;;;0.20;0.20;;;2.50;99.90;;;;;;4964879;29;20011;-78
2023/12/05 00:27:42;;;;;;;6.30;6.07;;;2.50;99.90;;;;;;4984177;23;20540;-78
2023/12/05 00:30:08;;;;;;;0.10;0.10;;;2.50;99.90;;;;;;4987761;28;20031;-78
2023/12/05 00:32:46;;;;;;;0.30;0.30;;;2.50;99.90;;;;;;4983687;28;20520;-78
2023/12/05 00:35:18;;;;;;;0.20;0.20;;;2.50;99.90;;;;;;4980789;28;20022;-78
2023/12/05 00:37:56;;;;;;;0.10;0.10;;;2.50;99.90;;;;;;4961259;28;20109;-78
2023/12/05 00:40:29;;;;;;;0.20;0.20;;;2.60;99.90;;;;;;4958291;28;20026;-78
2023/12/05 00:42:56;;;;;;;0.30;0.30;;;2.50;99.90;;;;;;4978682;28;20029;-78
2023/12/05 00:45:22;;;;;;;0.20;0.20;;;2.60;99.90;;;;;;4973309;28;20027;-78
2023/12/05 00:47:54;;;;;;;0.10;0.10;;;2.60;99.90;;;;;;4980267;28;20015;-78
2023/12/05 00:50:20;;;;;;;0.20;0.20;;;2.60;99.90;;;;;;4977123;28;20054;-78
2023/12/05 00:53:00;;;;;;;12.05;11.55;;;2.60;99.90;;;;;;4978192;28;20113;-78
2023/12/05 00:55:26;;;;;;;1.13;0.73;;;2.60;99.90;;;;;;4979870;28;20014;-78
2023/12/05 00:57:52;;;;;;;0.20;0.20;;;2.60;99.90;;;;;;4974646;28;20103;-78
2023/12/05 01:00:24;;;;;;;0.10;0.10;;;2.60;99.90;;;;;;4974423;28;20019;-78
2023/12/05 01:02:59;;;;;;;0.20;0.20;;;2.60;99.90;;;;;;4982137;28;20019;-79
2023/12/05 01:05:52;;;;;;;0.20;0.20;;;2.60;99.90;;;;;;4982583;28;20015;-79
2023/12/05 01:08:18;;;;;;;1.15;1.15;;;2.80;99.90;;;;;;4878469;29;20037;-78
2023/12/05 01:10:44;;;;;;;0.20;0.20;;;2.70;99.90;;;;;;4879158;29;20100;-78
2023/12/05 01:13:09;;;;;;;0.10;0.10;;;2.60;99.90;;;;;;4878018;29;20124;-79
2023/12/05 01:15:35;;;;;;;0.20;0.20;;;2.70;99.90;;;;;;4880454;29;20029;-78
2023/12/05 01:18:04;;;;;;;0.30;0.30;;;;;;;;;;4881632;29;20025;-78
2023/12/05 01:20:39;;;;;;;0.10;0.10;;;2.70;99.90;;;;;;4884248;29;20029;-82
2023/12/05 01:23:16;;;;;;;3.05;2.95;;;2.70;99.90;;;;;;4883987;29;20107;-78
2023/12/05 01:26:03;;;;;;;5.55;5.38;;;2.80;99.90;;;;;;4887316;29;20052;-78
2023/12/05 01:28:29;;;;;;;0.10;0.10;;;2.80;99.90;;;;;;4883707;29;20773;-79
2023/12/05 01:30:59;;;;;;;0.05;0.05;;;2.80;99.90;;;;;;4878160;29;20021;-79
2023/12/05 01:33:26;;;;;;;0.10;0.10;;;2.70;99.90;;;;;;4878929;29;20077;-78
2023/12/05 01:35:57;;;;;;;0.55;0.55;;;2.70;99.90;;;;;;4873287;29;20053;-78
2023/12/05 01:38:27;;;;;;;0.10;0.10;;;2.70;99.90;;;;;;4870580;29;20041;-78
2023/12/05 01:40:53;;;;;;;0.10;0.10;;;2.80;99.90;;;;;;4872907;29;20087;-78
2023/12/05 01:43:19;;;;;;;0.20;0.20;;;2.90;99.90;;;;;;4871510;29;20040;-78
2023/12/05 01:45:45;;;;;;;0.98;0.98;;;2.90;99.90;;;;;;4933984;28;20065;-79
2023/12/05 01:48:16;;;;;;;0.20;0.20;;;3.00;99.90;;;;;;4950988;28;20054;-79
2023/12/05 01:50:44;;;;;;;0.50;0.50;;;2.90;99.90;;;;;;4968864;28;20015;-78
2023/12/05 01:53:11;;;;;;;0.10;0.10;;;2.80;99.90;;;;;;4968133;28;20097;-78
2023/12/05 01:55:43;;;;;;;0.10;0.10;;;2.80;99.90;;;;;;4968494;28;20052;-78
2023/12/05 01:58:10;;;;;;;0.10;0.10;;;3.40;99.90;;;;;;4969576;28;20015;-78
2023/12/05 02:00:40;;;;;;;0.10;0.10;;;2.70;99.90;;;;;;4969566;28;20027;-78
2023/12/05 02:03:07;;;;;;;0.55;0.55;;;2.70;99.90;;;;;;4972448;28;20026;-79
2023/12/05 02:05:33;;;;;;;10.15;9.45;;;2.70;99.90;;;;;;4947813;28;20065;-79
2023/12/05 02:07:59;;;;;;;0.10;0.10;;;;;;;;;;4948912;28;20043;-78
2023/12/05 02:10:26;;;;;;;7.22;3.03;;;2.70;99.90;;;;;;4967751;28;20097;-78
2023/12/05 02:12:52;;;;;;;0.30;0.30;;;4.00;99.90;;;;;;4948098;28;20045;-78
2023/12/05 02:15:19;;;;;;;0.10;0.10;;;2.70;99.90;;;;;;4968601;28;20614;-79
2023/12/05 02:18:27;;;;;;;2.55;2.45;;;2.70;99.90;;;;;;4970017;28;20077;-78
2023/12/05 02:21:05;;;;;;;0.20;0.20;;;2.70;99.90;;;;;;4975670;28;20097;-78
2023/12/05 02:23:50;;;;;;;12.50;11.80;;;2.70;99.90;;;;;;4972128;28;20086;-78
2023/12/05 02:26:57;;;;;;;0.20;0.20;;;2.60;99.90;;;;;;4969342;28;20026;-78
2023/12/05 02:29:25;;;;;;;0.25;0.25;;;2.50;99.90;;;;;;4974596;28;20042;-78
2023/12/05 02:31:51;;;;;;;0.20;0.20;;;2.30;99.90;;;;;;4974482;28;20065;-78
2023/12/05 02:34:19;;;;;;;0.20;0.20;;;2.30;99.90;;;;;;4957861;28;20065;-78
2023/12/05 02:37:07;;;;;;;0.20;0.20;;;2.20;99.90;;;;;;4977298;28;20030;-78
2023/12/05 02:39:49;;;;;;;0.20;0.20;;;2.90;99.90;;;;;;4972142;28;20035;-78
2023/12/05 02:42:22;;;;;;;0.20;0.20;;;2.10;99.90;;;;;;4953720;28;20015;-78
2023/12/05 02:44:53;;;;;;;0.20;0.20;;;2.10;99.90;;;;;;4970978;28;20089;-78
2023/12/05 02:47:22;;;;;;;5.28;4.97;;;2.10;99.90;;;;;;4977853;28;20046;-78
2023/12/05 02:50:12;;;;;;;0.10;0.10;;;2.10;99.90;;;;;;4983492;28;20026;-78
2023/12/05 02:53:02;;;;;;;0.77;0.77;;;2.00;99.90;;;;;;4945991;29;20047;-79
2023/12/05 02:55:33;;;;;;;0.30;0.30;;;2.10;99.90;;;;;;4928998;29;20024;-78
2023/12/05 02:57:59;;;;;;;12.27;11.90;;;2.60;99.90;;;;;;4942830;29;20126;-79
2023/12/05 03:00:39;;;;;;;1.60;1.55;;;2.00;99.90;;;;;;4942445;29;20073;-79
2023/12/05 03:03:17;;;;;;;3.00;2.75;;;2.60;99.90;;;;;;4896065;29;20047;-79
2023/12/05 03:05:51;;;;;;;5.95;5.68;;;1.40;99.90;;;;;;4893692;29;20601;-78
2023/12/05 03:08:16;;;;;;;0.20;0.20;;;1.80;99.90;;;;;;4898399;29;20052;-79
2023/12/05 03:10:45;;;;;;;0.20;0.20;;;1.80;99.90;;;;;;4897575;29;20065;-78
2023/12/05 03:13:38;;;;;;;0.20;0.20;;;1.60;99.90;;;;;;4898266;29;20484;-78
2023/12/05 03:16:11;;;;;;;0.25;0.25;;;1.60;99.90;;;;;;4842952;29;20059;-79
2023/12/05 03:18:39;;;;;;;0.52;0.52;;;1.70;99.90;;;;;;4836664;29;20122;-79
2023/12/05 03:21:06;;;;;;;0.20;0.20;;;1.50;99.90;;;;;;4837279;29;20044;-78
2023/12/05 03:23:33;;;;;;;6.90;4.22;;;1.40;99.90;;;;;;4856104;29;20082;-78
2023/12/05 03:26:04;;;;;;;0.20;0.20;;;1.40;99.90;;;;;;4876202;29;20044;-78
2023/12/05 03:28:29;;;;;;;1.08;1.08;;;1.50;99.90;;;;;;4873905;29;20068;-78
2023/12/05 03:30:56;;;;;;;0.20;0.20;;;1.50;99.90;;;;;;4874238;29;20284;-78
2023/12/05 03:33:26;;;;;;;0.30;0.30;;;1.50;99.90;;;;;;4889691;29;20040;-78
2023/12/05 03:35:52;;;;;;;0.30;0.30;;;1.50;99.90;;;;;;4914981;29;20506;-78
2023/12/05 03:38:22;;;;;;;0.10;0.10;;;1.40;99.90;;;;;;4919230;29;20047;-79
2023/12/05 03:40:47;;;;;;;0.20;0.20;;;1.50;99.90;;;;;;4917439;29;20568;-78
2023/12/05 03:43:15;;;;;;;0.20;0.20;;;1.50;99.90;;;;;;4912920;29;20096;-78
2023/12/05 03:45:54;;;;;;;0.30;0.30;;;1.50;99.90;;;;;;4913007;29;20052;-78
2023/12/05 03:48:21;;;;;;;0.20;0.20;;;1.50;99.90;;;;;;4971276;28;20038;-78
2023/12/05 03:50:47;;;;;;;0.20;0.20;;;1.60;99.90;;;;;;4973927;28;20027;-78
2023/12/05 03:53:13;;;;;;;0.20;0.20;;;1.50;99.90;;;;;;4975266;28;20121;-78
2023/12/05 03:55:45;;;;;;;0.20;0.20;;;1.40;99.90;;;;;;4981965;28;20007;-78
2023/12/05 03:58:13;;;;;;;0.20;0.20;;;1.60;99.90;;;;;;4982683;28;20059;-79
2023/12/05 04:00:43;;;;;;;0.20;0.20;;;1.60;99.90;;;;;;4985401;28;20018;-78
2023/12/05 04:03:34;;;;;;;0.25;0.25;;;1.60;99.90;;;;;;4987667;28;20030;-79
2023/12/05 04:06:02;;;;;;;0.20;0.20;;;2.30;99.90;;;;;;4981845;28;20015;-78
2023/12/05 04:08:30;;;;;;;0.20;0.20;;;1.50;99.90;;;;;;4981564;28;20031;-78
2023/12/05 04:10:56;;;;;;;0.20;0.20;;;1.60;99.90;;;;;;4982944;28;20046;-79
2023/12/05 04:13:23;;;;;;;0.30;0.30;;;1.60;99.90;;;;;;4976909;28;20039;-79
2023/12/05 04:15:55;;;;;;;0.20;0.20;;;1.60;99.90;;;;;;4976014;28;20011;-79
2023/12/05 04:18:25;;;;;;;0.20;0.20;;;1.60;99.90;;;;;;4979213;28;20027;-78
2023/12/05 04:20:59;;;;;;;0.20;0.20;;;1.60;99.90;;;;;;4978743;28;20019;-78
2023/12/05 04:23:28;;;;;;;;;;;1.50;99.90;;;;;;4973350;28;20031;-78
2023/12/05 04:25:54;;;;;;;0.20;0.20;;;1.60;99.90;;;;;;4974549;28;19910;-78
2023/12/05 04:28:20;;;;;;;1.30;1.30;;;1.50;99.90;;;;;;4970301;28;20109;-78
2023/12/05 04:30:51;;;;;;;0.10;0.10;;;1.50;99.90;;;;;;4970028;28;20053;-78
2023/12/05 04:33:17;;;;;;;0.20;0.20;;;1.50;99.90;;;;;;4952390;28;20046;-78
2023/12/05 04:35:44;;;;;;;0.20;0.20;;;1.40;99.90;;;;;;4972539;28;20686;-78
2023/12/05 04:38:10;;;;;;;0.20;0.20;;;1.40;99.90;;;;;;4972328;28;20678;-80
2023/12/05 04:40:36;;;;;;;0.20;0.20;;;1.30;99.90;;;;;;4978692;28;20074;-79
2023/12/05 04:43:05;;;;;;;0.20;0.20;;;1.30;99.90;;;;;;4976790;28;20737;-79
2023/12/05 04:45:38;;;;;;;0.20;0.20;;;1.30;99.90;;;;;;4974423;28;20178;-78
2023/12/05 04:48:06;;;;;;;0.20;0.20;;;1.30;99.90;;;;;;4985372;28;20109;-78
2023/12/05 04:50:33;;;;;;;0.50;0.50;;;1.30;99.90;;;;;;4976199;28;20015;-78
2023/12/05 04:53:05;;;;;;;0.20;0.20;;;1.20;99.90;;;;;;4974588;28;20691;-78
2023/12/05 04:55:34;;;;;;;0.13;0.13;;;1.20;99.90;;;;;;4960134;28;20037;-78
2023/12/05 04:57:59;;;;;;;0.20;0.20;;;1.10;99.90;;;;;;4974099;28;20054;-78
2023/12/05 05:00:47;;;;;;;0.20;0.20;;;1.00;99.90;;;;;;4976867;28;20663;-79
2023/12/05 05:03:18;;;;;;;0.15;0.15;;;1.00;99.90;;;;;;4974840;28;20037;-78
2023/12/05 05:05:44;;;;;;;0.28;0.28;;;0.90;99.90;;;;;;4977045;28;20046;-78
2023/12/05 05:08:11;;;;;;;0.20;0.20;;;0.90;99.90;;;;;;4976267;28;20042;-78
2023/12/05 05:10:47;;;;;;;0.20;0.20;;;0.90;99.90;;;;;;4968544;28;20027;-78
2023/12/05 05:13:13;;;;;;;0.10;0.10;;;0.80;99.90;;;;;;4968344;28;20039;-78
2023/12/05 05:15:43;;;;;;;0.90;0.90;;;0.80;99.90;;;;;;4965393;28;20093;-78
2023/12/05 05:18:35;;;;;;;0.20;0.20;;;0.80;99.90;;;;;;4977164;28;20019;-78
2023/12/05 05:21:05;;;;;;;0.20;0.20;;;;;;;;;;4915772;29;20032;-79
2023/12/05 05:23:32;;;;;;;0.20;0.20;;;;;;;;;;4941977;29;20071;-78
2023/12/05 05:26:01;;;;;;;0.30;0.30;;;;;;;;;;4937866;29;20099;-78
2023/12/05 05:28:31;;;;;;;0.20;0.20;;;0.70;99.90;;;;;;4936443;29;20058;-79
2023/12/05 05:31:00;;;;;;;0.20;0.20;;;0.70;99.90;;;;;;4940968;28;20055;-78
2023/12/05 05:33:31;;;;;;;0.20;0.20;;;0.70;99.90;;;;;;4917932;29;20057;-78
2023/12/05 05:36:07;;;;;;;0.20;0.20;;;0.70;99.90;;;;;;4899514;29;20100;-78
2023/12/05 05:38:39;;;;;;;0.20;0.20;;;0.70;99.90;;;;;;4991208;23;20118;-78
2023/12/05 05:41:18;;;;;;;0.20;0.20;;;1.20;99.90;;;;;;4951030;28;20525;-78
2023/12/05 05:43:46;;;;;;;0.20;0.20;;;0.80;99.90;;;;;;4948433;29;20067;-79
2023/12/05 05:46:18;;;;;;;0.27;0.27;;;1.00;99.90;;;;;;4955214;28;20524;-79
2023/12/05 05:48:44;;;;;;;0.20;0.20;;;0.70;99.90;;;;;;5150888;23;20078;-78
2023/12/05 05:51:27;;;;;;;0.20;0.20;;;0.60;99.90;;;;;;4950982;28;20043;-79
2023/12/05 05:53:55;;;;;;;0.20;0.20;;;0.60;99.90;;;;;;4973013;28;20053;-78
2023/12/05 05:56:22;;;;;;;0.20;0.20;;;0.50;99.90;;;;;;4979302;28;20090;-78
2023/12/05 05:58:48;;;;;;;0.20;0.20;;;0.60;99.90;;;;;;4978146;28;20352;-78
2023/12/05 06:01:17;;;;;;;0.30;0.30;;;0.50;99.90;;;;;;4935782;28;20078;-78
2023/12/05 06:03:56;;;;;;;0.20;0.20;;;0.60;99.90;;;;;;4951582;28;20081;-78
2023/12/05 06:06:22;;;;;;;0.20;0.20;;;0.60;99.90;;;;;;4968909;28;20027;-78
2023/12/05 06:09:01;;;;;;;;;;;;;;;;;;;;;
2023/12/05 06:11:28;;;;;;;0.30;0.30;;;0.60;99.90;;;;;;4969983;28;20637;-78
2023/12/05 06:13:54;;;;;;;0.20;0.20;;;0.60;99.90;;;;;;4953952;28;20065;-78
2023/12/05 06:16:20;;;;;;;8.60;8.30;;;0.60;99.90;;;;;;4977625;23;20055;-78
2023/12/05 06:18:46;;;;;;;0.20;0.20;;;0.70;99.90;;;;;;4970208;28;20026;-78
2023/12/05 06:21:14;;;;;;;0.20;0.20;;;0.60;99.90;;;;;;4972258;28;20134;-78
2023/12/05 06:23:40;;;;;;;0.20;0.20;;;;;;;;;;4960488;28;20022;-78
2023/12/05 06:26:06;;;;;;;0.20;0.20;;;0.70;99.90;;;;;;4961758;28;20063;-78
2023/12/05 06:28:41;;;;;;;0.20;0.20;;;0.70;99.90;;;;;;4979397;28;20019;-78
2023/12/05 06:31:06;;;;;;;0.20;0.20;;;0.80;99.90;;;;;;4963601;28;20034;-79
2023/12/05 06:33:56;;;;;;;0.20;0.20;;;0.70;99.90;;;;;;4958741;28;20622;-78
2023/12/05 06:36:21;;;;;;;0.20;0.20;;;0.80;99.90;;;;;;4973998;28;20015;-78
2023/12/05 06:38:53;;;;;;;0.27;0.27;;;0.90;99.90;;;;;;4975181;28;20061;-78
2023/12/05 06:41:20;;;;;;;0.20;0.20;;;1.00;99.90;;;;;;4973946;28;20671;-78
2023/12/05 06:43:50;;;;;;;0.20;0.20;;;0.90;99.90;;;;;;4974554;28;20014;-78
2023/12/05 06:46:22;;;;;;;0.10;0.10;;;0.50;99.90;;;;;;4978866;28;20174;-78
2023/12/05 06:48:52;;;;;;;0.20;0.20;;;1.10;99.90;;;;;;4979835;28;20055;-78
2023/12/05 06:51:19;;;;;;;0.30;0.30;;;1.10;99.90;;;;;;4952760;28;20031;-77
2023/12/05 06:53:46;;;;;;;0.30;0.30;;;1.10;99.90;;;;;;4976586;23;20081;-77
2023/12/05 06:56:25;;;;;;;0.20;0.20;;;1.20;99.90;;;;;;4973009;28;20061;-77
2023/12/05 06:58:51;;;;;;;0.20;0.20;;;1.20;99.90;;;;;;4975607;28;20034;-78
2023/12/05 07:01:19;;;;;;;0.25;0.25;;;1.20;99.90;;;;;;4969952;28;20030;-77
2023/12/05 07:03:48;;;;;;;0.20;0.20;;;1.20;99.90;;;;;;4977379;23;20069;-78
2023/12/05 07:06:13;;;;;;;0.32;0.32;;;1.20;99.90;;;;;;4973121;28;20031;-77
2023/12/05 07:08:41;;;;;;;0.10;0.10;;;1.30;99.90;;;;;;4976927;28;20033;-77
2023/12/05 07:11:09;;;;;;;14.38;2.58;;;1.30;99.90;;;;;;4974600;28;20569;-76
2023/12/05 07:13:35;;;;;;;0.20;0.20;;;1.30;99.90;;;;;;4955450;28;20042;-78
2023/12/05 07:16:01;;;;;;;0.20;0.20;;;1.30;99.90;;;;;;4980435;28;20091;-78
2023/12/05 07:18:30;;;;;;;0.20;0.20;;;1.40;99.90;;;;;;5003085;23;20069;-78
2023/12/05 07:20:56;;;;;;;0.20;0.20;;;1.40;99.90;;;;;;4956519;28;20686;-78
2023/12/05 07:23:22;;;;;;;0.20;0.20;;;1.50;99.90;;;;;;4976550;28;20029;-78
2023/12/05 07:25:49;;;;;;;0.20;0.20;;;1.60;99.90;;;;;;4957079;28;20108;-77
2023/12/05 07:28:23;;;;;;;0.10;0.10;;;1.70;99.90;;;;;;4973908;28;20014;-77
2023/12/05 07:30:51;;;;;;;0.20;0.20;;;1.70;99.90;;;;;;5010538;23;20047;-78
2023/12/05 07:33:17;;;;;;;16.33;15.48;;;1.90;99.90;;;;;;4960743;28;20055;-77
2023/12/05 07:35:43;;;;;;;0.20;0.20;;;2.00;99.90;;;;;;4954102;29;20027;-78
2023/12/05 07:38:08;;;;;;;0.20;0.20;;;1.90;99.90;;;;;;4953943;28;20027;-78
2023/12/05 07:40:36;;;;;;;0.28;0.28;;;2.00;99.90;;;;;;4962787;28;20031;-76
2023/12/05 07:43:02;;;;;;;6.15;5.88;;;;;;;;;;4953539;28;20020;-77
2023/12/05 07:45:31;;;;;;;0.43;0.43;;;2.20;99.90;;;;;;4951434;29;20054;-78
2023/12/05 07:47:59;;;;;;;5.15;4.95;;;0.00;99.90;;;;;;4942369;29;20100;-78
2023/12/05 07:50:31;;;;;;;0.20;0.20;;;2.40;99.90;;;;;;4941318;29;20016;-78
2023/12/05 07:52:56;;;;;;;3.28;3.17;;;2.40;99.90;;;;;;4938845;29;20027;-77
2023/12/05 07:55:23;;;;;;;0.17;0.17;;;;;;;;;;5034401;23;20046;-77
2023/12/05 07:57:50;;;;;;;1.65;1.65;;;2.50;99.90;;;;;;4972253;28;20027;-77
2023/12/05 08:00:17;;;;;;;0.73;0.73;;;2.50;99.90;;;;;;4969628;28;20658;-77
2023/12/05 08:02:54;;;;;;;1.00;1.00;;;2.60;99.90;;;;;;4974559;28;20003;-77
2023/12/05 08:05:20;;;;;;;0.15;0.15;;;2.80;99.90;;;;;;4981475;28;20074;-78
2023/12/05 08:07:48;;;;;;;0.20;0.20;;;;;;;;;;4982104;28;20010;-79
2023/12/05 08:12:46;;;;;;;0.10;0.10;;;2.80;99.90;;;;;;4965531;28;20055;-77
2023/12/05 08:15:12;;;;;;;0.20;0.20;;;2.90;99.90;;;;;;4966358;28;20113;-77
2023/12/05 08:17:38;;;;;;;0.20;0.20;;;3.10;99.90;;;;;;4969046;28;20686;-77
2023/12/05 08:20:08;;;;;;;0.10;0.10;;;2.20;99.90;;;;;;4972939;28;20689;-77
2023/12/05 08:22:35;;;;;;;1.40;1.40;;;3.50;99.90;;;;;;4967525;28;20115;-77
2023/12/05 08:25:08;;;;;;;13.38;12.82;;;3.70;99.90;;;;;;4943104;28;20035;-78
2023/12/05 08:27:37;;;;;;;0.17;0.17;;;3.90;99.90;;;;;;4975322;28;20026;-78
2023/12/05 08:30:03;;;;;;;0.03;0.03;;;4.00;99.90;;;;;;4970856;28;20042;-77
2023/12/05 08:32:39;;;;;;;2.45;2.35;;;4.10;99.90;;;;;;4967476;28;20030;-77
2023/12/05 08:35:07;;;;;;;0.30;0.30;;;4.20;99.90;;;;;;4970513;28;20054;-78
2023/12/05 08:37:43;;;;;;;0.10;0.10;;;4.30;99.90;;;;;;4967103;28;20023;-77
2023/12/05 08:40:20;;;;;;;0.10;0.10;;;4.60;99.90;;;;;;4979823;28;20023;-78
2023/12/05 08:42:46;;;;;;;0.08;0.08;;;4.80;99.90;;;;;;4972045;28;20042;-76
2023/12/05 08:45:15;;;;;;;0.17;0.17;;;5.00;99.90;;;;;;4977430;28;20015;-76
2023/12/05 08:47:44;;;;;;;0.10;0.10;;;5.20;99.90;;;;;;4953643;29;20023;-76
2023/12/05 08:50:11;;;;;;;0.10;0.10;;;5.30;99.90;;;;;;4950800;29;20027;-76
2023/12/05 08:52:41;;;;;;;0.10;0.10;;;5.50;99.90;;;;;;4948238;29;20039;-76
2023/12/05 08:55:07;;;;;;;12.30;9.95;;;5.70;99.90;;;;;;4955826;28;20011;-77
2023/12/05 08:57:33;;;;;;;1.77;1.75;;;5.70;99.90;;;;;;4954861;29;20751;-76
2023/12/05 08:59:58;;;;;;;0.00;0.00;;;5.80;99.90;;;;;;4954287;29;20035;-76
2023/12/05 09:02:28;;;;;;;0.10;0.10;;;5.80;99.90;;;;;;4956011;29;20094;-77
2023/12/05 09:04:55;;;;;;;0.10;0.10;;;5.80;99.90;;;;;;4951544;29;20023;-77
2023/12/05 09:07:21;;;;;;;0.10;0.10;;;6.00;99.90;;;;;;4945277;29;20015;-77
2023/12/05 09:09:54;;;;;;;0.10;0.10;;;6.00;99.90;;;;;;4964950;29;20494;-76
2023/12/05 09:12:23;;;;;;;0.13;0.13;;;6.30;99.90;;;;;;4962581;28;20045;-77
2023/12/05 09:14:49;;;;;;;0.10;0.10;;;6.60;99.90;;;;;;4961301;28;20380;-77
2023/12/05 09:17:38;;;;;;;0.10;0.10;;;6.70;99.90;;;;;;4961027;29;20024;-76
2023/12/05 09:20:14;;;;;;;0.10;0.10;;;6.70;99.90;;;;;;4962346;29;20615;-77
2023/12/05 09:22:40;;;;;;;0.10;0.10;;;7.00;99.90;;;;;;4962446;29;20015;-77
2023/12/05 09:25:08;;;;;;;0.10;0.10;;;6.90;99.90;;;;;;4965174;29;20047;-77
2023/12/05 09:27:43;;;;;;;0.00;0.00;;;7.10;99.90;;;;;;4956350;29;20110;-77
2023/12/05 09:30:10;;;;;;;0.00;0.00;;;7.00;99.90;;;;;;4962166;29;20028;-76
2023/12/05 09:32:36;;;;;;;0.00;0.00;;;6.90;99.90;;;;;;4965829;29;20015;-79
2023/12/05 09:35:13;;;;;;;0.10;0.10;;;7.20;99.90;;;;;;4948859;29;20038;-76
2023/12/05 09:37:39;;;;;;;0.10;0.10;;;7.30;99.90;;;;;;4962802;29;20043;-77
2023/12/05 09:40:12;;;;;;;0.10;0.10;;;7.40;99.90;;;;;;4958912;29;20470;-77
2023/12/05 09:42:40;;;;;;;0.10;0.10;;;7.40;99.90;;;;;;4966311;29;20039;-76
2023/12/05 09:45:30;;;;;;;0.10;0.10;;;7.40;99.90;;;;;;4967908;29;20010;-77
2023/12/05 09:48:04;;;;;;;0.32;0.32;;;7.20;99.90;;;;;;4965714;28;20721;-78
2023/12/05 09:50:55;;;;;;;0.15;0.15;;;7.30;99.90;;;;;;4966256;29;20007;-78
2023/12/05 09:54:24;;;;;;;2.58;2.47;;;8.10;99.90;;;;;;4949375;29;20070;-78
2023/12/05 09:56:59;;;;;;;0.10;0.10;;;7.10;99.90;;;;;;4902415;29;20303;-78
2023/12/05 09:59:37;;;;;;;0.10;0.10;;;7.70;99.90;;;;;;4901468;29;20033;-79
2023/12/05 10:02:37;;;;;;;0.00;0.00;;;7.90;99.90;;;;;;4906935;29;20279;-80
2023/12/05 10:05:38;;;;;;;0.10;0.10;;;8.20;99.90;;;;;;4878390;29;20044;-79
2023/12/05 10:08:07;;;;;;;0.10;0.10;;;10.20;99.90;;;;;;4824672;29;20042;-78
2023/12/05 10:10:38;;;;;;;3.13;3.03;;;8.40;99.90;;;;;;4825904;29;20361;-78
2023/12/05 10:13:04;;;;;;;2.17;1.65;;;8.30;99.90;;;;;;4831164;29;20123;-78
2023/12/05 10:15:33;;;;;;;0.20;0.20;;;8.40;99.90;;;;;;4824800;29;20874;-79
2023/12/05 10:18:02;;;;;;;0.20;0.20;;;8.50;99.90;;;;;;4827240;29;20026;-79
2023/12/05 10:20:31;;;;;;;0.10;0.10;;;8.50;99.90;;;;;;4824400;29;20493;-78
2023/12/05 10:23:06;;;;;;;0.10;0.10;;;8.60;99.90;;;;;;4825420;29;20064;-78
2023/12/05 10:25:32;;;;;;;0.10;0.10;;;8.60;99.90;;;;;;4828484;29;20035;-79
2023/12/05 10:28:18;;;;;;;0.10;0.10;;;8.60;99.90;;;;;;4833740;29;20090;-79
2023/12/05 10:30:53;;;;;;;0.20;0.20;;;12.40;99.90;;;;;;4835401;29;20714;-79
2023/12/05 10:33:41;;;;;;;0.20;0.20;;;9.10;99.90;;;;;;4855850;29;20085;-78
2023/12/05 10:36:15;;;;;;;0.10;0.10;;;9.40;99.90;;;;;;4884159;29;20052;-78
2023/12/05 10:38:47;;;;;;;0.20;0.20;;;9.80;99.90;;;;;;4885203;29;20029;-78
2023/12/05 10:41:33;;;;;;;0.20;0.20;;;10.10;99.90;;;;;;4888535;29;20190;-78
2023/12/05 10:44:02;;;;;;;3.33;3.22;;;10.30;99.90;;;;;;4894445;29;20116;-78
2023/12/05 10:46:34;;;;;;;0.20;0.20;;;10.50;99.90;;;;;;4953722;28;20246;-78
2023/12/05 10:49:05;;;;;;;1.85;1.75;;;10.70;99.90;;;;;;4956443;29;20016;-78
2023/12/05 10:55:09;;;;;;;0.20;0.20;;;11.80;99.60;;;;;;4987213;23;20050;-78
2023/12/05 10:57:42;;;;;;;0.20;0.20;;;11.30;99.30;;;;;;4979570;28;20594;-78
2023/12/05 11:00:13;;;;;;;1.73;1.70;;;11.30;98.30;;;;;;4957557;29;20042;-79
2023/12/05 11:02:39;;;;;;;0.20;0.20;;;11.40;98.20;;;;;;4951726;29;20070;-83
2023/12/05 11:05:09;;;;;;;0.68;0.68;;;11.70;98.20;;;;;;4951927;29;20023;-79
2023/12/05 11:08:18;;;;;;;;;;;;;;;;;;;;;
2023/12/05 11:10:48;;;;;;;0.20;0.20;;;12.00;97.10;;;;;;4872978;29;20055;-79
2023/12/05 11:13:15;;;;;;;0.77;0.77;;;11.70;96.60;;;;;;4870666;29;20020;-79
2023/12/05 11:15:43;;;;;;;0.20;0.20;;;11.70;96.80;;;;;;4888590;29;20738;-79
2023/12/05 11:18:43;;;;;;;0.30;0.30;;;11.90;97.60;;;;;;4886457;29;20274;-79
2023/12/05 11:21:28;;;;;;;0.35;0.35;;;12.20;96.80;;;;;;4808900;29;20030;-79
2023/12/05 11:24:29;;;;;;;0.20;0.20;;;12.20;96.20;;;;;;4808472;29;20542;-81
2023/12/05 11:27:07;;;;;;;0.20;0.20;;;12.00;96.60;;;;;;4809708;29;20038;-79
2023/12/05 11:30:11;;;;;;;0.20;0.20;;;12.20;96.50;;;;;;4812526;29;20553;-79
2023/12/05 11:33:20;;;;;;;0.20;0.20;;;12.20;96.30;;;;;;4741316;30;20490;-85
2023/12/05 11:36:27;;;;;;;0.20;0.20;;;12.00;96.10;;;;;;4722201;30;20051;-81
2023/12/05 11:38:54;;;;;;;0.30;0.30;;;12.50;95.90;;;;;;4687456;30;20755;-77
2023/12/05 11:41:20;;;;;;;0.20;0.20;;;12.80;94.90;;;;;;4693043;30;20511;-80
2023/12/05 11:44:18;;;;;;;0.20;0.20;;;12.80;94.40;;;;;;4687014;30;20547;-80
2023/12/05 11:46:47;;;;;;;0.15;0.15;;;12.40;94.10;;;;;;4688706;30;20777;-85
2023/12/05 11:49:27;;;;;;;1.10;1.10;;;12.20;95.00;;;;;;4693104;30;20137;-79
2023/12/05 11:51:53;;;;;;;5.30;4.95;;;12.30;94.80;;;;;;4924579;23;20059;-86
2023/12/05 11:54:23;;;;;;;0.77;0.77;;;12.30;94.70;;;;;;4949423;29;20035;-85
2023/12/05 11:56:57;;;;;;;0.22;0.22;;;12.30;94.80;;;;;;4948603;29;20019;-82
2023/12/05 11:59:23;;;;;;;0.70;0.70;;;12.40;94.90;;;;;;4944818;28;20047;-80
2023/12/05 12:01:49;;;;;;;0.30;0.30;;;12.20;95.00;;;;;;4942324;29;20118;-80
2023/12/05 12:04:29;;;;;;;1.00;1.00;;;12.30;94.30;;;;;;4944407;28;20099;-80
2023/12/05 12:07:18;;;;;;;3.22;3.03;;;12.50;94.70;;;;;;4949941;29;20227;-80
2023/12/05 12:09:44;;;;;;;0.43;0.43;;;13.50;95.40;;;;;;4959100;28;20024;-80
2023/12/05 12:12:12;;;;;;;0.20;0.20;;;12.70;94.80;;;;;;4944122;28;20693;-79
2023/12/05 12:14:41;;;;;;;0.20;0.20;;;12.70;94.40;;;;;;4943152;28;20034;-80
2023/12/05 12:17:11;;;;;;;0.20;0.20;;;12.60;94.90;;;;;;4945078;29;20699;-89
2023/12/05 12:19:38;;;;;;;0.10;0.10;;;12.70;95.00;;;;;;4942923;29;20641;-85
2023/12/05 12:22:12;;;;;;;0.20;0.20;;;12.90;94.90;;;;;;4944061;28;20066;-82
2023/12/05 12:24:40;;;;;;;0.20;0.20;;;13.20;94.90;;;;;;4943964;28;20024;-79
2023/12/05 12:27:09;;;;;;;0.20;0.20;;;13.40;94.60;;;;;;4942779;29;20115;-80
2023/12/05 12:29:36;;;;;;;0.20;0.20;;;13.70;94.80;;;;;;4945706;28;20023;-84
2023/12/05 12:32:10;;;;;;;0.20;0.20;;;13.70;94.50;;;;;;4942859;28;20034;-87
2023/12/05 12:34:38;;;;;;;0.20;0.20;;;13.80;93.80;;;;;;4948496;29;20043;-78
2023/12/05 12:37:05;;;;;;;0.25;0.25;;;13.70;94.00;;;;;;4943503;28;20070;-81
2023/12/05 12:39:36;;;;;;;0.20;0.20;;;13.50;93.60;;;;;;4943133;28;20035;-80
2023/12/05 12:42:07;;;;;;;0.30;0.30;;;13.30;93.60;;;;;;4945974;29;20659;-79
2023/12/05 12:44:40;;;;;;;0.28;0.28;;;13.00;94.10;;;;;;4946565;28;20027;-82
2023/12/05 12:47:25;;;;;;;2.67;2.53;;;12.80;94.50;;;;;;4952425;28;20039;-79
2023/12/05 12:49:51;;;;;;;2.72;2.60;;;12.60;95.10;;;;;;4949932;28;20027;-79
2023/12/05 12:52:17;;;;;;;0.25;0.25;;;12.00;96.30;;;;;;4964544;28;20681;-79
2023/12/05 12:54:43;;;;;;;0.30;0.30;;;11.80;96.40;;;;;;4966602;28;20034;-80
2023/12/05 12:57:09;;;;;;;0.20;0.20;;;11.70;96.80;;;;;;4949536;28;20019;-77
2023/12/05 12:59:36;;;;;;;0.20;0.20;;;11.70;96.90;;;;;;4948279;28;20681;-84
2023/12/05 13:02:06;;;;;;;0.20;0.20;;;11.60;97.30;;;;;;4983850;28;20041;-79
2023/12/05 13:04:34;;;;;;;0.20;0.20;;;11.50;97.60;;;;;;4983494;28;20026;-81
2023/12/05 13:07:00;;;;;;;0.20;0.20;;;11.30;98.00;;;;;;4985687;28;20101;-78
2023/12/05 13:09:28;;;;;;;0.20;0.20;;;10.90;98.20;;;;;;4993450;28;20624;-79
2023/12/05 13:11:55;;;;;;;0.15;0.15;;;11.20;98.90;;;;;;5004772;28;20102;-79
2023/12/05 13:14:22;;;;;;;0.20;0.20;;;11.30;98.80;;;;;;5007809;28;20030;-80
2023/12/05 13:16:49;;;;;;;0.30;0.30;;;11.20;98.80;;;;;;5002675;28;20705;-78
2023/12/05 13:19:32;;;;;;;0.20;0.20;;;11.10;99.10;;;;;;5002712;28;20026;-78
2023/12/05 13:22:19;;;;;;;0.20;0.20;;;11.00;99.30;;;;;;4982866;28;20091;-79
2023/12/05 13:25:01;;;;;;;0.20;0.20;;;10.90;99.50;;;;;;5001051;28;20050;-79
2023/12/05 13:27:30;;;;;;;0.32;0.32;;;10.70;99.90;;;;;;5000520;28;20284;-78
2023/12/05 13:29:58;;;;;;;0.50;0.50;;;10.70;99.90;;;;;;4999267;28;20751;-79